Main page
METAR-TAF:

METAR-TAF

Airports :

Warton Aerodrome

Preston, England

latitude: 53-44-42N, longitude: 2-53-02W, elevation: 17 m

Current weather observation

The report was made 2 hours and 5 minutes ago, at 16:20 UTC
Wind 5 kt from the West/Northwest, varying between West and North/Northwest
Temperature 17°C
Humidity 77%
Pressure 1015 hPa
Visibility 10 km or more
no clouds below 1500 m and no cumulonimbus

METAR: EGNO 211620Z 29005KT 260V330 CAVOK 17/13 Q1015

Time: 19:25 (18:25 UTC)

Forecast

The report was made 4 hours and 19 minutes ago, at 14:06 UTC
Forecast valid from 21 at 15 UTC to 21 at 18 UTC
Wind 9 kt from the West
Visibility 10 km or more
Few clouds at a height of 1500 ft
Probability 40% :
Temporary
from 21 at 16 UTC to 21 at 18 UTC
Broken clouds at a height of 800 ft

TAF: EGNO 211406Z 2115/2118 27009KT 9999 FEW015 PROB40 TEMPO 2116/2118 BKN008

Weather observations and forecasts of more than 4000 airports (METAR and TAF reports).

The available stations are represented by yellow and red dots on the map.

Hover mouse over dot to see the name of the station.

Then click to see weather observations and forecasts.

To change the map : click on the green buttons with a black cross to zoom in, on the green button with a dash to zoom out, or on the green arrows for adjacent maps.


METAR-TAF: